createdAt,value
2019-03-26T00:01:49.660Z,85.00
2019-03-26T00:04:18.178Z,85.30
2019-03-26T00:06:46.675Z,84.60
2019-03-26T00:09:15.227Z,85.00
2019-03-26T00:11:43.668Z,85.20
2019-03-26T00:14:12.199Z,84.90
2019-03-26T00:16:40.710Z,84.50
2019-03-26T00:19:09.269Z,84.80
2019-03-26T00:21:37.790Z,84.20
2019-03-26T00:24:06.303Z,84.30
2019-03-26T00:26:34.746Z,84.20
2019-03-26T00:29:03.435Z,84.30
2019-03-26T00:31:31.867Z,84.20
2019-03-26T00:34:00.409Z,84.10
2019-03-26T00:36:28.877Z,84.20
2019-03-26T00:38:57.323Z,83.70
2019-03-26T00:41:25.877Z,83.90
2019-03-26T00:43:54.408Z,83.30
2019-03-26T00:46:22.920Z,82.90
2019-03-26T00:48:51.489Z,82.60
2019-03-26T00:51:19.946Z,83.70
2019-03-26T00:53:48.384Z,84.30
2019-03-26T00:56:16.842Z,84.70
2019-03-26T00:58:45.510Z,85.10
2019-03-26T01:01:14.207Z,85.40
2019-03-26T01:03:43.020Z,85.40
2019-03-26T01:06:11.561Z,85.00
2019-03-26T01:08:40.020Z,85.20
2019-03-26T01:11:08.511Z,85.80
2019-03-26T01:13:37.091Z,85.80
2019-03-26T01:16:05.625Z,85.70
2019-03-26T01:18:34.064Z,85.80
2019-03-26T01:21:02.666Z,85.70
2019-03-26T01:23:31.275Z,85.40
2019-03-26T01:25:59.711Z,85.80
2019-03-26T01:28:28.176Z,86.10
2019-03-26T01:30:56.674Z,86.50
2019-03-26T01:33:25.220Z,87.10
2019-03-26T01:35:53.647Z,87.40
2019-03-26T01:38:22.126Z,87.40
2019-03-26T01:40:50.583Z,87.30
2019-03-26T01:43:19.211Z,87.80
2019-03-26T01:45:47.726Z,88.00
2019-03-26T01:48:16.211Z,88.30
2019-03-26T01:50:44.706Z,88.20
2019-03-26T01:53:13.182Z,87.60
2019-03-26T01:55:41.617Z,87.70
2019-03-26T01:58:10.079Z,87.90
2019-03-26T02:00:38.855Z,87.90
2019-03-26T02:03:07.392Z,88.00
2019-03-26T02:05:35.888Z,88.30
2019-03-26T02:08:04.483Z,88.70
2019-03-26T02:10:32.973Z,88.20
2019-03-26T02:13:01.421Z,88.20
2019-03-26T02:15:32.937Z,88.40
2019-03-26T02:18:01.898Z,88.40
2019-03-26T02:20:30.824Z,88.40
2019-03-26T02:22:59.550Z,88.30
2019-03-26T02:25:28.090Z,88.00
2019-03-26T02:27:56.531Z,87.90
2019-03-26T02:30:25.019Z,87.70
2019-03-26T02:32:53.590Z,87.20
2019-03-26T02:35:22.074Z,87.10
2019-03-26T02:37:50.510Z,86.60
2019-03-26T02:40:19.264Z,87.00
2019-03-26T02:42:47.794Z,87.10
2019-03-26T02:45:16.317Z,86.30
2019-03-26T02:47:45.019Z,86.60
2019-03-26T02:50:13.899Z,86.40
2019-03-26T02:52:42.341Z,86.40
2019-03-26T02:55:10.960Z,86.60
2019-03-26T02:57:39.399Z,86.60
2019-03-26T03:00:09.365Z,86.90
2019-03-26T03:02:37.865Z,87.00
2019-03-26T03:05:06.538Z,86.60
2019-03-26T03:07:35.132Z,86.80
2019-03-26T03:10:07.342Z,86.90
2019-03-26T03:12:35.851Z,86.90
2019-03-26T03:15:06.178Z,87.30
2019-03-26T03:17:34.689Z,87.40
2019-03-26T03:20:03.878Z,87.80
2019-03-26T03:22:32.410Z,88.30
2019-03-26T03:25:00.864Z,88.70
2019-03-26T03:27:29.330Z,89.00
2019-03-26T03:29:57.844Z,89.40
2019-03-26T03:32:26.372Z,89.70
2019-03-26T03:34:54.838Z,89.50
2019-03-26T03:37:23.299Z,89.40
2019-03-26T03:39:51.811Z,89.00
2019-03-26T03:42:20.373Z,89.00
2019-03-26T03:44:48.786Z,88.70
2019-03-26T03:47:18.879Z,88.40
2019-03-26T03:49:47.760Z,87.80
2019-03-26T03:52:17.670Z,87.90
2019-03-26T03:54:47.999Z,87.70
2019-03-26T03:57:18.177Z,87.50
2019-03-26T03:59:47.440Z,87.70
2019-03-26T04:02:16.352Z,87.30
2019-03-26T04:04:44.931Z,87.30
2019-03-26T04:07:13.519Z,86.80
2019-03-26T04:09:41.962Z,86.90
2019-03-26T04:12:10.499Z,86.70
2019-03-26T04:14:38.946Z,86.60
2019-03-26T04:17:07.566Z,86.70
2019-03-26T04:19:36.005Z,86.40
2019-03-26T04:22:04.431Z,87.50
2019-03-26T04:24:32.901Z,86.20
2019-03-26T04:27:01.509Z,85.80
2019-03-26T04:29:30.037Z,85.80
2019-03-26T04:31:58.621Z,85.80
2019-03-26T04:34:27.141Z,85.70
2019-03-26T04:36:55.584Z,86.50
2019-03-26T04:39:24.088Z,87.00
2019-03-26T04:41:52.517Z,86.70
2019-03-26T04:44:21.049Z,86.70
2019-03-26T04:46:49.473Z,86.40
2019-03-26T04:49:17.946Z,86.10
2019-03-26T04:51:46.399Z,85.90
2019-03-26T04:54:14.905Z,85.30
2019-03-26T04:56:43.459Z,85.20
2019-03-26T04:59:11.963Z,85.30
2019-03-26T05:01:40.381Z,86.10
2019-03-26T05:04:08.855Z,85.10
2019-03-26T05:06:38.407Z,84.20
2019-03-26T05:09:07.312Z,84.20
2019-03-26T05:11:35.871Z,83.30
2019-03-26T05:14:04.313Z,83.20
2019-03-26T05:16:32.978Z,82.90
2019-03-26T05:19:01.485Z,82.90
2019-03-26T05:21:30.045Z,83.70
2019-03-26T05:23:58.483Z,83.70
2019-03-26T05:26:26.983Z,84.50
2019-03-26T05:28:55.419Z,84.70
2019-03-26T05:31:24.230Z,84.30
2019-03-26T05:33:52.814Z,84.20
2019-03-26T05:36:21.370Z,84.70
2019-03-26T05:38:49.810Z,84.70
2019-03-26T05:41:18.288Z,84.20
2019-03-26T05:43:46.871Z,84.40
2019-03-26T05:46:15.325Z,84.70
2019-03-26T05:48:43.772Z,84.80
2019-03-26T05:51:12.226Z,84.60
2019-03-26T05:53:40.736Z,85.20
2019-03-26T05:56:09.208Z,86.90
2019-03-26T05:58:37.646Z,88.80
2019-03-26T06:01:06.123Z,88.60
2019-03-26T06:03:34.559Z,88.50
2019-03-26T06:06:03.231Z,87.50
2019-03-26T06:08:31.927Z,87.70
2019-03-26T06:11:00.470Z,86.50
2019-03-26T06:13:28.919Z,87.30
2019-03-26T06:15:57.411Z,87.80
2019-03-26T06:18:26.057Z,87.80
2019-03-26T06:20:54.593Z,87.50
2019-03-26T06:23:23.053Z,86.80
2019-03-26T06:25:51.690Z,86.30
2019-03-26T06:28:20.248Z,85.80
2019-03-26T06:30:48.766Z,85.70
2019-03-26T06:33:17.353Z,85.30
2019-03-26T06:35:45.817Z,85.00
2019-03-26T06:38:14.386Z,84.70
2019-03-26T06:40:42.988Z,84.60
2019-03-26T06:43:11.601Z,82.50
2019-03-26T06:45:40.055Z,81.40
2019-03-26T06:48:08.617Z,80.90
2019-03-26T06:50:37.434Z,79.20
2019-03-26T06:53:05.968Z,79.30
2019-03-26T06:55:34.418Z,79.00
2019-03-26T06:58:03.524Z,77.90
2019-03-26T07:00:33.610Z,76.20
2019-03-26T07:03:06.521Z,75.80
2019-03-26T07:05:35.057Z,75.00
2019-03-26T07:08:03.649Z,74.60
2019-03-26T07:10:32.254Z,76.00
2019-03-26T07:13:00.850Z,75.50
2019-03-26T07:15:29.591Z,74.80
2019-03-26T07:17:58.177Z,74.20
2019-03-26T07:20:26.731Z,76.70
2019-03-26T07:22:55.310Z,76.70
2019-03-26T07:25:23.909Z,77.30
2019-03-26T07:27:52.355Z,77.10
2019-03-26T07:30:38.474Z,77.30
2019-03-26T07:33:07.639Z,78.00
2019-03-26T07:35:36.221Z,78.00
2019-03-26T07:38:05.007Z,76.40
2019-03-26T07:40:33.525Z,76.10
2019-03-26T07:43:02.051Z,75.60
2019-03-26T07:45:30.582Z,74.80
2019-03-26T07:47:59.027Z,75.10
2019-03-26T07:50:27.638Z,75.00
2019-03-26T07:52:56.155Z,72.80
2019-03-26T07:55:24.625Z,72.60
2019-03-26T07:57:53.162Z,74.60
2019-03-26T08:00:24.686Z,72.80
2019-03-26T08:02:53.223Z,71.30
2019-03-26T08:05:29.511Z,70.40
2019-03-26T08:07:58.340Z,69.60
2019-03-26T08:10:22.231Z,69.60
2019-03-26T08:12:50.778Z,68.10
2019-03-26T08:15:20.367Z,67.60
2019-03-26T08:17:48.963Z,67.70
2019-03-26T08:20:17.487Z,68.40
2019-03-26T08:22:46.015Z,68.50
2019-03-26T08:25:14.660Z,68.30
2019-03-26T08:27:43.246Z,68.00
2019-03-26T08:30:12.075Z,68.30
2019-03-26T08:32:40.559Z,67.00
2019-03-26T08:35:09.377Z,66.60
2019-03-26T08:37:38.034Z,65.10
2019-03-26T08:40:08.240Z,65.40
2019-03-26T08:42:36.883Z,65.30
2019-03-26T08:45:07.468Z,64.10
2019-03-26T08:47:36.371Z,65.40
2019-03-26T08:50:06.831Z,66.40
2019-03-26T08:52:35.310Z,65.20
2019-03-26T08:55:05.299Z,65.30
2019-03-26T08:57:33.765Z,65.30
2019-03-26T09:00:02.224Z,66.00
2019-03-26T09:02:30.678Z,65.60
2019-03-26T09:04:59.206Z,65.60
2019-03-26T09:07:27.738Z,66.00
2019-03-26T09:09:56.483Z,64.10
2019-03-26T09:12:25.014Z,64.10
2019-03-26T09:14:53.497Z,62.10
2019-03-26T09:17:23.670Z,62.50
2019-03-26T09:19:52.397Z,63.60
2019-03-26T09:22:21.029Z,62.50
2019-03-26T09:24:49.486Z,63.40
2019-03-26T09:27:18.138Z,64.00
2019-03-26T09:29:46.614Z,64.10
2019-03-26T09:32:15.068Z,63.30
2019-03-26T09:34:43.602Z,63.60
2019-03-26T09:37:12.118Z,62.40
2019-03-26T09:39:40.767Z,61.40
2019-03-26T09:42:09.283Z,59.60
2019-03-26T09:44:37.915Z,57.80
2019-03-26T09:47:16.048Z,55.40
2019-03-26T09:49:36.647Z,51.40
2019-03-26T09:52:05.191Z,51.30
2019-03-26T09:54:33.788Z,53.40
2019-03-26T09:57:02.305Z,54.00
2019-03-26T09:59:30.759Z,55.70
2019-03-26T10:01:59.219Z,57.40
2019-03-26T10:04:27.752Z,56.40
2019-03-26T10:06:56.337Z,56.40
2019-03-26T10:09:24.776Z,54.90
2019-03-26T10:11:53.351Z,56.40
2019-03-26T10:14:21.951Z,58.20
2019-03-26T10:16:50.425Z,58.40
2019-03-26T10:19:18.873Z,58.90
2019-03-26T10:21:47.438Z,58.80
2019-03-26T10:24:15.967Z,59.60
2019-03-26T10:26:44.433Z,59.40
2019-03-26T10:29:24.171Z,59.60
2019-03-26T10:31:43.141Z,59.30
2019-03-26T10:34:11.736Z,59.50
2019-03-26T10:36:41.705Z,58.70
2019-03-26T10:39:10.385Z,57.50
2019-03-26T10:41:38.824Z,57.50
2019-03-26T10:44:07.340Z,56.50
2019-03-26T10:46:35.831Z,56.20
2019-03-26T10:49:04.455Z,54.60
2019-03-26T10:51:33.881Z,53.20
2019-03-26T10:54:02.439Z,52.50
2019-03-26T10:56:32.652Z,51.90
2019-03-26T10:59:04.037Z,51.10
2019-03-26T11:01:31.570Z,51.80
2019-03-26T11:04:00.147Z,52.00
2019-03-26T11:06:28.629Z,51.60
2019-03-26T11:09:01.064Z,52.20
2019-03-26T11:11:29.528Z,51.20
2019-03-26T11:13:58.868Z,51.10
2019-03-26T11:16:27.768Z,51.80
2019-03-26T11:18:56.230Z,52.00
2019-03-26T11:21:24.718Z,50.80
2019-03-26T11:23:53.547Z,50.90
2019-03-26T11:26:22.071Z,51.20
2019-03-26T11:28:50.714Z,51.10
2019-03-26T11:31:19.236Z,51.40
2019-03-26T11:33:47.699Z,52.30
2019-03-26T11:36:16.365Z,51.80
2019-03-26T11:38:44.999Z,52.30
2019-03-26T11:41:13.510Z,52.20
2019-03-26T11:43:42.128Z,51.90
2019-03-26T11:46:10.714Z,52.40
2019-03-26T11:48:39.180Z,52.90
2019-03-26T11:51:07.762Z,52.20
2019-03-26T11:53:36.381Z,52.10
2019-03-26T11:56:04.901Z,52.00
2019-03-26T11:58:33.394Z,51.40
2019-03-26T12:01:01.866Z,50.70
2019-03-26T12:03:30.423Z,50.80
2019-03-26T12:05:58.951Z,49.60
2019-03-26T12:08:27.486Z,49.30
2019-03-26T12:10:56.006Z,48.80
2019-03-26T12:13:24.471Z,49.40
2019-03-26T12:15:52.996Z,50.40
2019-03-26T12:18:21.652Z,50.40
2019-03-26T12:20:50.217Z,49.50
2019-03-26T12:23:18.962Z,49.20
2019-03-26T12:25:47.524Z,49.30
2019-03-26T12:28:15.974Z,49.60
2019-03-26T12:30:44.653Z,49.40
2019-03-26T12:33:13.209Z,48.00
2019-03-26T12:35:41.651Z,47.00
2019-03-26T12:38:18.238Z,46.90
2019-03-26T12:40:47.151Z,46.00
2019-03-26T12:43:16.888Z,45.30
2019-03-26T12:45:45.505Z,46.00
2019-03-26T12:48:14.108Z,45.30
2019-03-26T12:50:42.731Z,45.00
2019-03-26T12:53:12.723Z,45.20
2019-03-26T12:55:41.488Z,45.00
2019-03-26T12:58:09.928Z,44.30
2019-03-26T13:00:38.509Z,44.60
2019-03-26T13:03:06.995Z,45.90
2019-03-26T13:05:35.623Z,46.20
2019-03-26T13:08:04.160Z,46.90
2019-03-26T13:10:32.664Z,45.20
2019-03-26T13:13:01.139Z,46.20
2019-03-26T13:15:29.594Z,46.70
2019-03-26T13:17:58.429Z,48.00
2019-03-26T13:20:26.893Z,48.10
2019-03-26T13:22:55.515Z,49.00
2019-03-26T13:25:23.973Z,49.50
2019-03-26T13:27:52.580Z,49.40
2019-03-26T13:30:21.540Z,49.60
2019-03-26T13:32:50.362Z,49.10
2019-03-26T13:35:19.002Z,48.50
2019-03-26T13:37:47.546Z,48.60
2019-03-26T13:40:26.484Z,48.30
2019-03-26T13:42:46.669Z,47.50
2019-03-26T13:45:16.078Z,46.80
2019-03-26T13:47:47.639Z,46.50
2019-03-26T13:50:16.512Z,47.20
2019-03-26T13:52:44.987Z,45.80
2019-03-26T13:55:13.787Z,45.00
2019-03-26T13:57:42.251Z,44.50
2019-03-26T14:00:11.671Z,45.00
2019-03-26T14:02:40.183Z,44.50
2019-03-26T14:05:23.275Z,45.10
2019-03-26T14:07:51.866Z,45.60
2019-03-26T14:10:20.437Z,45.20
2019-03-26T14:12:48.953Z,45.40
2019-03-26T14:15:17.506Z,45.20
2019-03-26T14:17:46.070Z,45.00
2019-03-26T14:20:15.285Z,45.90
2019-03-26T14:22:43.803Z,45.80
2019-03-26T14:25:12.419Z,46.40
2019-03-26T14:27:41.005Z,45.80
2019-03-26T14:30:14.645Z,45.50
2019-03-26T14:32:46.353Z,45.80
2019-03-26T14:35:14.979Z,46.50
2019-03-26T14:37:51.164Z,47.10
2019-03-26T14:40:14.027Z,47.10
2019-03-26T14:42:42.540Z,47.80
2019-03-26T14:45:11.382Z,48.40
2019-03-26T14:47:39.954Z,48.10
2019-03-26T14:50:09.140Z,48.20
2019-03-26T14:52:37.589Z,47.90
2019-03-26T14:55:07.918Z,48.10
2019-03-26T14:57:36.630Z,48.00
2019-03-26T15:00:07.465Z,47.30
2019-03-26T15:02:35.967Z,47.40
2019-03-26T15:05:06.375Z,47.60
2019-03-26T15:07:34.861Z,47.40
2019-03-26T15:10:05.373Z,47.90
2019-03-26T15:12:33.937Z,48.20
2019-03-26T15:15:02.455Z,48.00
2019-03-26T15:17:30.945Z,47.90
2019-03-26T15:19:59.405Z,47.10
2019-03-26T15:22:27.906Z,47.00
2019-03-26T15:24:59.363Z,47.00
2019-03-26T15:27:26.630Z,46.20
2019-03-26T15:29:55.170Z,45.10
2019-03-26T15:32:23.733Z,45.10
2019-03-26T15:34:52.311Z,45.30
2019-03-26T15:37:20.755Z,46.50
2019-03-26T15:39:49.294Z,47.60
2019-03-26T15:42:17.774Z,48.70
2019-03-26T15:44:46.299Z,49.40
2019-03-26T15:47:14.791Z,50.30
2019-03-26T15:49:43.238Z,50.40
2019-03-26T15:52:11.729Z,50.10
2019-03-26T15:54:40.238Z,50.10
2019-03-26T15:57:08.715Z,50.20
2019-03-26T15:59:37.174Z,50.50
2019-03-26T16:02:05.643Z,50.70
2019-03-26T16:04:34.166Z,50.50
2019-03-26T16:07:02.609Z,50.20
2019-03-26T16:09:31.116Z,50.30
2019-03-26T16:11:59.617Z,49.60
2019-03-26T16:14:28.367Z,49.40
2019-03-26T16:16:57.171Z,49.50
2019-03-26T16:19:32.039Z,49.50
2019-03-26T16:21:55.968Z,49.40
2019-03-26T16:24:24.479Z,49.30
2019-03-26T16:26:53.021Z,49.30
2019-03-26T16:29:21.587Z,50.20
2019-03-26T16:31:50.081Z,49.30
2019-03-26T16:34:18.620Z,50.10
2019-03-26T16:36:58.886Z,50.30
2019-03-26T16:39:17.610Z,49.60
2019-03-26T16:41:49.289Z,49.10
2019-03-26T16:44:16.255Z,48.50
2019-03-26T16:46:44.846Z,47.30
2019-03-26T16:49:13.399Z,47.30
2019-03-26T16:51:41.840Z,47.60
2019-03-26T16:54:10.339Z,47.50
2019-03-26T16:56:38.864Z,47.10
2019-03-26T16:59:07.474Z,47.20
2019-03-26T17:01:36.028Z,47.00
2019-03-26T17:04:04.748Z,47.10
2019-03-26T17:06:33.250Z,46.40
2019-03-26T17:09:01.880Z,46.50
2019-03-26T17:11:30.431Z,46.80
2019-03-26T17:13:58.881Z,46.60
2019-03-26T17:16:27.434Z,47.40
2019-03-26T17:18:55.902Z,46.80
2019-03-26T17:21:24.556Z,46.40
2019-03-26T17:23:53.009Z,46.70
2019-03-26T17:26:22.881Z,46.90
2019-03-26T17:28:51.414Z,46.80
2019-03-26T17:31:19.901Z,48.40
2019-03-26T17:33:48.366Z,48.40
2019-03-26T17:36:16.926Z,48.10
2019-03-26T17:38:45.386Z,48.10
2019-03-26T17:41:13.895Z,47.80
2019-03-26T17:43:42.346Z,48.10
2019-03-26T17:46:10.946Z,48.00
2019-03-26T17:48:39.435Z,48.00
2019-03-26T17:51:07.918Z,48.50
2019-03-26T17:53:36.599Z,48.80
2019-03-26T17:56:05.273Z,49.10
2019-03-26T17:58:33.801Z,49.30
2019-03-26T18:01:02.367Z,49.40
2019-03-26T18:03:31.390Z,49.40
2019-03-26T18:05:59.950Z,49.70
2019-03-26T18:08:28.394Z,49.70
2019-03-26T18:10:57.321Z,49.90
2019-03-26T18:13:25.736Z,49.80
2019-03-26T18:15:54.283Z,50.20
2019-03-26T18:18:22.848Z,50.20
2019-03-26T18:20:51.418Z,50.40
2019-03-26T18:23:19.889Z,50.60
2019-03-26T18:25:48.416Z,51.10
2019-03-26T18:28:16.982Z,51.50
2019-03-26T18:30:45.739Z,51.70
2019-03-26T18:33:14.309Z,52.00
2019-03-26T18:35:44.176Z,52.10
2019-03-26T18:38:14.956Z,52.50
2019-03-26T18:40:43.767Z,52.30
2019-03-26T18:43:12.298Z,52.20
2019-03-26T18:45:40.823Z,52.10
2019-03-26T18:48:09.631Z,52.50
2019-03-26T18:50:38.164Z,52.70
2019-03-26T18:53:06.828Z,52.70
2019-03-26T18:55:35.495Z,53.30
2019-03-26T18:58:04.365Z,53.20
2019-03-26T19:00:37.742Z,53.00
2019-03-26T19:03:07.305Z,53.10
2019-03-26T19:05:35.736Z,53.40
2019-03-26T19:08:07.054Z,53.40
2019-03-26T19:10:36.692Z,53.60
2019-03-26T19:13:18.846Z,53.70
2019-03-26T19:15:35.800Z,53.60
2019-03-26T19:18:04.437Z,53.70
2019-03-26T19:20:33.250Z,53.60
2019-03-26T19:23:01.820Z,53.70
2019-03-26T19:25:30.394Z,53.60
2019-03-26T19:27:59.047Z,53.80
2019-03-26T19:30:27.668Z,53.90
2019-03-26T19:32:57.638Z,54.40
2019-03-26T19:35:26.690Z,54.00
2019-03-26T19:37:55.279Z,54.10
2019-03-26T19:40:23.792Z,54.10
2019-03-26T19:42:52.268Z,54.30
2019-03-26T19:45:21.332Z,54.60
2019-03-26T19:47:49.885Z,54.70
2019-03-26T19:50:18.638Z,55.20
2019-03-26T19:52:47.198Z,55.10
2019-03-26T19:55:15.750Z,55.30
2019-03-26T19:57:44.327Z,55.90
2019-03-26T20:00:14.821Z,56.40
2019-03-26T20:02:43.588Z,57.20
2019-03-26T20:05:12.491Z,57.30
2019-03-26T20:07:41.026Z,57.20
2019-03-26T20:10:11.593Z,57.10
2019-03-26T20:12:40.221Z,57.20
2019-03-26T20:15:09.992Z,57.20
2019-03-26T20:17:38.534Z,58.00
2019-03-26T20:20:08.552Z,58.40
2019-03-26T20:22:37.408Z,58.00
2019-03-26T20:25:08.683Z,58.20
2019-03-26T20:27:36.468Z,58.50
2019-03-26T20:30:06.968Z,58.40
2019-03-26T20:32:35.611Z,58.20
2019-03-26T20:35:07.080Z,57.70
2019-03-26T20:37:35.707Z,57.80
2019-03-26T20:40:07.397Z,57.70
2019-03-26T20:42:36.031Z,57.70
2019-03-26T20:45:09.964Z,58.00
2019-03-26T20:47:38.946Z,59.00
2019-03-26T20:50:08.489Z,59.30
2019-03-26T20:52:37.123Z,59.10
2019-03-26T20:55:07.851Z,58.80
2019-03-26T20:57:36.572Z,59.50
2019-03-26T21:00:08.176Z,59.90
2019-03-26T21:02:36.789Z,60.90
2019-03-26T21:05:07.785Z,61.30
2019-03-26T21:07:37.698Z,60.90
2019-03-26T21:10:07.290Z,61.00
2019-03-26T21:12:35.769Z,59.70
2019-03-26T21:15:08.723Z,60.60
2019-03-26T21:17:37.864Z,60.90
2019-03-26T21:20:09.110Z,61.20
2019-03-26T21:22:36.842Z,61.30
2019-03-26T21:25:06.455Z,61.80
2019-03-26T21:27:34.984Z,62.30
2019-03-26T21:30:11.458Z,62.80
2019-03-26T21:32:35.779Z,63.50
2019-03-26T21:35:05.517Z,64.20
2019-03-26T21:37:34.116Z,64.40
2019-03-26T21:40:02.707Z,64.30
2019-03-26T21:42:31.209Z,63.20
2019-03-26T21:44:59.791Z,63.40
2019-03-26T21:47:28.321Z,65.00
2019-03-26T21:49:56.819Z,65.40
2019-03-26T21:52:25.449Z,65.10
2019-03-26T21:54:53.955Z,66.10
2019-03-26T21:57:22.505Z,67.40
2019-03-26T21:59:51.207Z,67.50
2019-03-26T22:02:19.742Z,67.50
2019-03-26T22:04:48.290Z,68.40
2019-03-26T22:07:16.740Z,69.00
2019-03-26T22:09:45.337Z,68.90
2019-03-26T22:12:14.099Z,67.90
2019-03-26T22:14:42.609Z,67.20
2019-03-26T22:17:11.541Z,66.70
2019-03-26T22:19:39.995Z,66.90
2019-03-26T22:22:08.486Z,68.40
2019-03-26T22:24:38.172Z,69.70
2019-03-26T22:27:06.703Z,69.70
2019-03-26T22:29:35.190Z,70.90
2019-03-26T22:32:03.967Z,69.20
2019-03-26T22:34:32.546Z,68.70
2019-03-26T22:37:01.038Z,67.90
2019-03-26T22:39:29.594Z,68.10
2019-03-26T22:41:58.223Z,67.80
2019-03-26T22:44:31.584Z,68.40
2019-03-26T22:46:56.847Z,67.60
2019-03-26T22:49:25.491Z,67.20
2019-03-26T22:51:54.241Z,67.30
2019-03-26T22:54:22.707Z,67.40
2019-03-26T22:56:51.274Z,68.80
2019-03-26T22:59:19.800Z,68.60
2019-03-26T23:01:48.281Z,68.10
2019-03-26T23:04:19.789Z,69.10
2019-03-26T23:06:47.021Z,68.80
2019-03-26T23:09:15.603Z,67.50
2019-03-26T23:11:44.172Z,68.20
2019-03-26T23:14:12.662Z,68.70
2019-03-26T23:16:41.109Z,69.30
2019-03-26T23:19:09.748Z,69.60
2019-03-26T23:21:38.243Z,70.10
2019-03-26T23:24:07.088Z,69.60
2019-03-26T23:26:35.630Z,70.90
2019-03-26T23:29:04.300Z,70.60
2019-03-26T23:31:32.846Z,71.50
2019-03-26T23:34:01.326Z,72.00
2019-03-26T23:36:29.790Z,71.90
2019-03-26T23:38:58.326Z,72.60
2019-03-26T23:41:26.843Z,72.60
2019-03-26T23:43:55.322Z,72.70
2019-03-26T23:46:23.965Z,73.00
2019-03-26T23:48:52.520Z,71.70
2019-03-26T23:51:20.968Z,71.70
2019-03-26T23:53:49.758Z,71.80
2019-03-26T23:56:18.258Z,71.90
2019-03-26T23:58:46.763Z,72.30
